sensor_id;sensor_type;location;lat;lon;timestamp;pressure;altitude;pressure_sealevel;temperature;humidity
76054;BME280;64752;48.870;9.082;2022-11-20T00:00:44;97649.69;;;4.00;97.87
76054;BME280;64752;48.870;9.082;2022-11-20T00:03:10;97651.53;;;3.90;98.02
76054;BME280;64752;48.870;9.082;2022-11-20T00:05:35;97654.16;;;3.84;97.71
76054;BME280;64752;48.870;9.082;2022-11-20T00:08:01;97651.28;;;4.07;97.82
76054;BME280;64752;48.870;9.082;2022-11-20T00:10:26;97646.97;;;4.11;97.82
76054;BME280;64752;48.870;9.082;2022-11-20T00:12:51;97642.81;;;4.00;97.38
76054;BME280;64752;48.870;9.082;2022-11-20T00:15:17;97644.59;;;3.97;97.75
76054;BME280;64752;48.870;9.082;2022-11-20T00:17:42;97647.25;;;3.91;97.76
76054;BME280;64752;48.870;9.082;2022-11-20T00:20:08;97648.16;;;3.86;97.72
76054;BME280;64752;48.870;9.082;2022-11-20T00:22:34;97648.09;;;3.90;97.58
76054;BME280;64752;48.870;9.082;2022-11-20T00:24:59;97642.13;;;3.91;97.53
76054;BME280;64752;48.870;9.082;2022-11-20T00:27:24;97645.66;;;3.82;97.81
76054;BME280;64752;48.870;9.082;2022-11-20T00:29:49;97643.91;;;3.84;97.68
76054;BME280;64752;48.870;9.082;2022-11-20T00:32:15;97646.44;;;3.89;97.71
76054;BME280;64752;48.870;9.082;2022-11-20T00:34:40;97641.41;;;3.82;97.80
76054;BME280;64752;48.870;9.082;2022-11-20T00:37:06;97649.97;;;3.78;97.70
76054;BME280;64752;48.870;9.082;2022-11-20T00:39:31;97642.41;;;3.69;98.11
76054;BME280;64752;48.870;9.082;2022-11-20T00:41:56;97643.34;;;3.62;97.86
76054;BME280;64752;48.870;9.082;2022-11-20T00:44:21;97645.06;;;3.63;97.77
76054;BME280;64752;48.870;9.082;2022-11-20T00:46:47;97646.69;;;3.69;97.79
76054;BME280;64752;48.870;9.082;2022-11-20T00:49:12;97648.22;;;3.82;97.99
76054;BME280;64752;48.870;9.082;2022-11-20T00:51:37;97650.59;;;3.96;97.74
76054;BME280;64752;48.870;9.082;2022-11-20T00:54:03;97644.84;;;3.78;97.71
76054;BME280;64752;48.870;9.082;2022-11-20T00:56:28;97644.97;;;3.69;97.83
76054;BME280;64752;48.870;9.082;2022-11-20T00:58:53;97651.03;;;3.62;97.85
76054;BME280;64752;48.870;9.082;2022-11-20T01:01:21;97647.72;;;3.57;97.75
76054;BME280;64752;48.870;9.082;2022-11-20T01:03:50;97642.59;;;3.55;97.78
76054;BME280;64752;48.870;9.082;2022-11-20T01:08:46;97650.47;;;3.41;97.88
76054;BME280;64752;48.870;9.082;2022-11-20T01:11:14;97653.84;;;3.43;98.19
76054;BME280;64752;48.870;9.082;2022-11-20T01:13:40;97647.91;;;3.41;97.74
76054;BME280;64752;48.870;9.082;2022-11-20T01:18:33;97659.97;;;3.35;97.93
76054;BME280;64752;48.870;9.082;2022-11-20T01:21:08;97663.28;;;3.41;97.96
76054;BME280;64752;48.870;9.082;2022-11-20T01:23:35;97667.44;;;3.50;97.61
76054;BME280;64752;48.870;9.082;2022-11-20T01:26:09;97659.72;;;3.53;98.12
76054;BME280;64752;48.870;9.082;2022-11-20T01:28:35;97662.09;;;3.67;97.41
76054;BME280;64752;48.870;9.082;2022-11-20T01:31:01;97665.44;;;3.75;97.31
76054;BME280;64752;48.870;9.082;2022-11-20T01:33:27;97660.94;;;3.90;97.26
76054;BME280;64752;48.870;9.082;2022-11-20T01:35:52;97662.50;;;4.01;97.31
76054;BME280;64752;48.870;9.082;2022-11-20T01:38:18;97658.88;;;4.15;97.17
76054;BME280;64752;48.870;9.082;2022-11-20T01:40:45;97651.84;;;4.26;96.49
76054;BME280;64752;48.870;9.082;2022-11-20T01:43:19;97658.53;;;4.36;95.67
76054;BME280;64752;48.870;9.082;2022-11-20T01:48:18;97656.75;;;4.41;94.56
76054;BME280;64752;48.870;9.082;2022-11-20T01:50:45;97651.59;;;4.43;94.36
76054;BME280;64752;48.870;9.082;2022-11-20T01:53:13;97657.84;;;4.27;94.88
76054;BME280;64752;48.870;9.082;2022-11-20T01:55:44;97657.69;;;4.36;95.62
76054;BME280;64752;48.870;9.082;2022-11-20T01:58:11;97659.41;;;4.35;94.45
76054;BME280;64752;48.870;9.082;2022-11-20T02:00:36;97655.72;;;4.50;93.99
76054;BME280;64752;48.870;9.082;2022-11-20T02:03:13;97663.25;;;4.62;92.73
76054;BME280;64752;48.870;9.082;2022-11-20T02:08:08;97662.13;;;4.77;92.16
76054;BME280;64752;48.870;9.082;2022-11-20T02:10:34;97663.03;;;4.75;92.13
76054;BME280;64752;48.870;9.082;2022-11-20T02:13:00;97662.94;;;4.79;91.37
76054;BME280;64752;48.870;9.082;2022-11-20T02:15:44;97652.56;;;4.86;91.11
76054;BME280;64752;48.870;9.082;2022-11-20T02:18:11;97647.28;;;4.93;89.49
76054;BME280;64752;48.870;9.082;2022-11-20T02:20:40;97654.19;;;4.91;89.85
76054;BME280;64752;48.870;9.082;2022-11-20T02:25:44;97651.66;;;4.88;90.46
76054;BME280;64752;48.870;9.082;2022-11-20T02:28:10;97650.69;;;4.94;90.28
76054;BME280;64752;48.870;9.082;2022-11-20T02:30:36;97652.31;;;4.99;90.59
76054;BME280;64752;48.870;9.082;2022-11-20T02:33:01;97648.09;;;4.95;90.45
76054;BME280;64752;48.870;9.082;2022-11-20T02:37:54;97652.25;;;5.04;88.14
76054;BME280;64752;48.870;9.082;2022-11-20T02:40:21;97654.72;;;5.07;87.53
76054;BME280;64752;48.870;9.082;2022-11-20T02:42:47;97655.69;;;5.01;87.65
76054;BME280;64752;48.870;9.082;2022-11-20T02:45:13;97656.59;;;5.00;88.96
76054;BME280;64752;48.870;9.082;2022-11-20T02:47:38;97654.84;;;5.01;88.67
76054;BME280;64752;48.870;9.082;2022-11-20T02:50:05;97652.34;;;4.98;89.08
76054;BME280;64752;48.870;9.082;2022-11-20T02:52:30;97654.97;;;4.95;89.25
76054;BME280;64752;48.870;9.082;2022-11-20T02:54:57;97654.25;;;4.87;89.73
76054;BME280;64752;48.870;9.082;2022-11-20T02:57:22;97649.06;;;4.91;89.45
76054;BME280;64752;48.870;9.082;2022-11-20T02:59:48;97649.13;;;4.87;90.28
76054;BME280;64752;48.870;9.082;2022-11-20T03:02:13;97648.31;;;4.83;90.30
76054;BME280;64752;48.870;9.082;2022-11-20T03:04:38;97648.28;;;4.86;90.25
76054;BME280;64752;48.870;9.082;2022-11-20T03:07:04;97645.78;;;4.81;89.89
76054;BME280;64752;48.870;9.082;2022-11-20T03:09:29;97652.59;;;4.84;90.10
76054;BME280;64752;48.870;9.082;2022-11-20T03:11:55;97646.66;;;4.82;90.43
76054;BME280;64752;48.870;9.082;2022-11-20T03:14:20;97644.06;;;4.82;89.55
76054;BME280;64752;48.870;9.082;2022-11-20T03:16:45;97637.25;;;4.79;90.18
76054;BME280;64752;48.870;9.082;2022-11-20T03:19:11;97636.53;;;4.73;89.88
76054;BME280;64752;48.870;9.082;2022-11-20T03:21:37;97636.63;;;4.67;90.39
76054;BME280;64752;48.870;9.082;2022-11-20T03:24:03;97635.75;;;4.69;90.31
76054;BME280;64752;48.870;9.082;2022-11-20T03:26:29;97631.47;;;4.68;90.29
76054;BME280;64752;48.870;9.082;2022-11-20T03:29:00;97632.41;;;4.64;89.60
76054;BME280;64752;48.870;9.082;2022-11-20T03:31:28;97628.19;;;4.61;89.50
76054;BME280;64752;48.870;9.082;2022-11-20T03:33:54;97634.19;;;4.60;90.07
76054;BME280;64752;48.870;9.082;2022-11-20T03:36:20;97627.25;;;4.64;89.59
76054;BME280;64752;48.870;9.082;2022-11-20T03:38:47;97631.47;;;4.68;89.72
76054;BME280;64752;48.870;9.082;2022-11-20T03:41:27;97629.75;;;4.69;89.26
76054;BME280;64752;48.870;9.082;2022-11-20T03:43:57;97630.69;;;4.63;89.55
76054;BME280;64752;48.870;9.082;2022-11-20T03:46:23;97627.50;;;4.50;90.45
76054;BME280;64752;48.870;9.082;2022-11-20T03:48:49;97636.19;;;4.43;91.80
76054;BME280;64752;48.870;9.082;2022-11-20T03:51:23;97634.47;;;4.43;91.40
76054;BME280;64752;48.870;9.082;2022-11-20T03:53:50;97630.97;;;4.48;90.92
76054;BME280;64752;48.870;9.082;2022-11-20T03:56:18;97633.56;;;4.46;91.03
76054;BME280;64752;48.870;9.082;2022-11-20T03:58:44;97633.66;;;4.41;90.91
76054;BME280;64752;48.870;9.082;2022-11-20T04:01:12;97629.25;;;4.48;90.67
76054;BME280;64752;48.870;9.082;2022-11-20T04:03:38;97633.50;;;4.49;90.43
76054;BME280;64752;48.870;9.082;2022-11-20T04:06:07;97636.09;;;4.48;90.44
76054;BME280;64752;48.870;9.082;2022-11-20T04:08:33;97628.38;;;4.49;90.30
76054;BME280;64752;48.870;9.082;2022-11-20T04:11:15;97621.59;;;4.45;90.63
76054;BME280;64752;48.870;9.082;2022-11-20T04:13:41;97630.19;;;4.42;90.39
76054;BME280;64752;48.870;9.082;2022-11-20T04:16:09;97626.09;;;4.34;90.99
76054;BME280;64752;48.870;9.082;2022-11-20T04:18:35;97629.50;;;4.33;91.02
76054;BME280;64752;48.870;9.082;2022-11-20T04:21:02;97624.41;;;4.31;90.81
76054;BME280;64752;48.870;9.082;2022-11-20T04:23:27;97625.19;;;4.35;90.73
76054;BME280;64752;48.870;9.082;2022-11-20T04:25:53;97632.84;;;4.39;90.17
76054;BME280;64752;48.870;9.082;2022-11-20T04:28:18;97620.94;;;4.34;89.20
76054;BME280;64752;48.870;9.082;2022-11-20T04:30:44;97620.09;;;4.32;90.11
76054;BME280;64752;48.870;9.082;2022-11-20T04:33:09;97621.84;;;4.30;90.10
76054;BME280;64752;48.870;9.082;2022-11-20T04:35:35;97618.38;;;4.34;90.15
76054;BME280;64752;48.870;9.082;2022-11-20T04:38:01;97619.25;;;4.31;90.38
76054;BME280;64752;48.870;9.082;2022-11-20T04:40:27;97614.94;;;4.33;90.00
76054;BME280;64752;48.870;9.082;2022-11-20T04:42:52;97623.47;;;4.35;90.11
76054;BME280;64752;48.870;9.082;2022-11-20T04:45:17;97621.81;;;4.33;89.88
76054;BME280;64752;48.870;9.082;2022-11-20T04:47:43;97625.28;;;4.30;90.27
76054;BME280;64752;48.870;9.082;2022-11-20T04:50:08;97624.41;;;4.30;90.54
76054;BME280;64752;48.870;9.082;2022-11-20T04:52:34;97628.66;;;4.34;90.52
76054;BME280;64752;48.870;9.082;2022-11-20T04:54:59;97619.22;;;4.34;89.77
76054;BME280;64752;48.870;9.082;2022-11-20T04:57:24;97624.25;;;4.39;89.69
76054;BME280;64752;48.870;9.082;2022-11-20T04:59:50;97617.44;;;4.38;89.67
76054;BME280;64752;48.870;9.082;2022-11-20T05:02:15;97619.00;;;4.47;89.76
76054;BME280;64752;48.870;9.082;2022-11-20T05:04:40;97616.47;;;4.45;89.14
76054;BME280;64752;48.870;9.082;2022-11-20T05:07:05;97612.28;;;4.39;89.90
76054;BME280;64752;48.870;9.082;2022-11-20T05:09:31;97615.75;;;4.37;89.56
76054;BME280;64752;48.870;9.082;2022-11-20T05:11:56;97615.69;;;4.41;89.36
76054;BME280;64752;48.870;9.082;2022-11-20T05:14:22;97623.28;;;4.46;89.70
76054;BME280;64752;48.870;9.082;2022-11-20T05:16:47;97617.22;;;4.50;89.62
76054;BME280;64752;48.870;9.082;2022-11-20T05:19:12;97618.09;;;4.51;90.11
76054;BME280;64752;48.870;9.082;2022-11-20T05:24:09;97617.94;;;4.58;89.22
76054;BME280;64752;48.870;9.082;2022-11-20T05:26:34;97619.59;;;4.62;89.01
76054;BME280;64752;48.870;9.082;2022-11-20T05:29:00;97624.69;;;4.66;88.57
76054;BME280;64752;48.870;9.082;2022-11-20T05:31:25;97617.91;;;4.61;89.12
76054;BME280;64752;48.870;9.082;2022-11-20T05:33:51;97622.94;;;4.68;89.30
76054;BME280;64752;48.870;9.082;2022-11-20T05:36:17;97622.94;;;4.66;89.10
76054;BME280;64752;48.870;9.082;2022-11-20T05:38:43;97621.19;;;4.68;89.21
76054;BME280;64752;48.870;9.082;2022-11-20T05:43:36;97616.84;;;4.72;88.81
76054;BME280;64752;48.870;9.082;2022-11-20T05:46:03;97619.34;;;4.76;88.79
76054;BME280;64752;48.870;9.082;2022-11-20T05:48:29;97616.72;;;4.79;88.91
76054;BME280;64752;48.870;9.082;2022-11-20T05:50:57;97614.94;;;4.83;88.37
76054;BME280;64752;48.870;9.082;2022-11-20T05:53:23;97605.53;;;4.82;88.44
76054;BME280;64752;48.870;9.082;2022-11-20T05:56:03;97616.53;;;4.89;88.27
76054;BME280;64752;48.870;9.082;2022-11-20T05:58:29;97610.56;;;4.88;88.47
76054;BME280;64752;48.870;9.082;2022-11-20T06:01:03;97612.19;;;4.92;87.95
76054;BME280;64752;48.870;9.082;2022-11-20T06:03:29;97608.75;;;4.93;88.81
76054;BME280;64752;48.870;9.082;2022-11-20T06:05:54;97610.56;;;4.88;88.59
76054;BME280;64752;48.870;9.082;2022-11-20T06:08:19;97610.56;;;4.88;88.61
76054;BME280;64752;48.870;9.082;2022-11-20T06:10:45;97607.16;;;4.88;89.27
76054;BME280;64752;48.870;9.082;2022-11-20T06:13:10;97603.69;;;4.89;88.68
76054;BME280;64752;48.870;9.082;2022-11-20T06:15:35;97608.81;;;4.90;88.25
76054;BME280;64752;48.870;9.082;2022-11-20T06:18:01;97612.28;;;4.88;89.05
76054;BME280;64752;48.870;9.082;2022-11-20T06:20:26;97608.91;;;4.86;88.75
76054;BME280;64752;48.870;9.082;2022-11-20T06:22:51;97600.34;;;4.85;88.48
76054;BME280;64752;48.870;9.082;2022-11-20T06:25:17;97599.44;;;4.89;88.60
76054;BME280;64752;48.870;9.082;2022-11-20T06:27:42;97603.75;;;4.87;88.88
76054;BME280;64752;48.870;9.082;2022-11-20T06:30:08;97605.47;;;4.85;88.80
76054;BME280;64752;48.870;9.082;2022-11-20T06:32:33;97615.69;;;4.90;88.65
76054;BME280;64752;48.870;9.082;2022-11-20T06:34:59;97607.06;;;4.92;87.97
76054;BME280;64752;48.870;9.082;2022-11-20T06:37:24;97611.44;;;4.87;89.53
76054;BME280;64752;48.870;9.082;2022-11-20T06:39:49;97607.97;;;4.90;89.03
76054;BME280;64752;48.870;9.082;2022-11-20T06:42:15;97612.31;;;4.86;89.81
76054;BME280;64752;48.870;9.082;2022-11-20T06:44:43;97602.00;;;4.89;88.82
76054;BME280;64752;48.870;9.082;2022-11-20T06:47:08;97601.88;;;4.94;88.57
76054;BME280;64752;48.870;9.082;2022-11-20T06:49:33;97605.19;;;5.00;88.95
76054;BME280;64752;48.870;9.082;2022-11-20T06:51:59;97608.59;;;5.02;88.51
76054;BME280;64752;48.870;9.082;2022-11-20T06:54:24;97612.88;;;5.02;88.59
76054;BME280;64752;48.870;9.082;2022-11-20T06:56:50;97617.06;;;5.06;88.77
76054;BME280;64752;48.870;9.082;2022-11-20T06:59:15;97614.50;;;5.06;89.14
76054;BME280;64752;48.870;9.082;2022-11-20T07:01:40;97611.81;;;5.12;88.33
76054;BME280;64752;48.870;9.082;2022-11-20T07:04:06;97626.25;;;5.18;88.51
76054;BME280;64752;48.870;9.082;2022-11-20T07:06:31;97620.16;;;5.24;88.07
76054;BME280;64752;48.870;9.082;2022-11-20T07:08:57;97612.31;;;5.31;88.18
76054;BME280;64752;48.870;9.082;2022-11-20T07:11:23;97611.19;;;5.43;88.03
76054;BME280;64752;48.870;9.082;2022-11-20T07:13:48;97618.91;;;5.43;87.94
76054;BME280;64752;48.870;9.082;2022-11-20T07:16:14;97615.31;;;5.52;87.37
76054;BME280;64752;48.870;9.082;2022-11-20T07:18:39;97617.72;;;5.58;87.70
76054;BME280;64752;48.870;9.082;2022-11-20T07:21:07;97623.66;;;5.62;87.19
76054;BME280;64752;48.870;9.082;2022-11-20T07:23:33;97618.44;;;5.66;86.93
76054;BME280;64752;48.870;9.082;2022-11-20T07:26:05;97619.31;;;5.64;87.29
76054;BME280;64752;48.870;9.082;2022-11-20T07:28:31;97632.75;;;5.76;87.22
76054;BME280;64752;48.870;9.082;2022-11-20T07:30:57;97624.94;;;5.83;87.94
76054;BME280;64752;48.870;9.082;2022-11-20T07:33:23;97631.75;;;5.84;87.47
76054;BME280;64752;48.870;9.082;2022-11-20T07:35:48;97629.22;;;5.82;87.45
76054;BME280;64752;48.870;9.082;2022-11-20T07:38:14;97632.66;;;5.83;88.25
76054;BME280;64752;48.870;9.082;2022-11-20T07:40:39;97640.16;;;5.92;88.03
76054;BME280;64752;48.870;9.082;2022-11-20T07:43:05;97635.06;;;5.89;88.86
76054;BME280;64752;48.870;9.082;2022-11-20T07:45:30;97638.84;;;5.74;88.17
76054;BME280;64752;48.870;9.082;2022-11-20T07:47:55;97639.69;;;5.73;88.70
76054;BME280;64752;48.870;9.082;2022-11-20T07:50:21;97637.88;;;5.78;88.21
76054;BME280;64752;48.870;9.082;2022-11-20T07:52:46;97636.97;;;5.80;88.26
76054;BME280;64752;48.870;9.082;2022-11-20T07:55:12;97643.63;;;5.89;87.50
76054;BME280;64752;48.870;9.082;2022-11-20T07:57:38;97644.38;;;5.94;88.51
76054;BME280;64752;48.870;9.082;2022-11-20T08:00:05;97649.53;;;5.96;87.70
76054;BME280;64752;48.870;9.082;2022-11-20T08:02:31;97638.25;;;6.02;88.03
76054;BME280;64752;48.870;9.082;2022-11-20T08:04:57;97639.59;;;6.18;86.67
76054;BME280;64752;48.870;9.082;2022-11-20T08:07:22;97642.00;;;6.24;86.79
76054;BME280;64752;48.870;9.082;2022-11-20T08:09:48;97644.25;;;6.40;85.54
76054;BME280;64752;48.870;9.082;2022-11-20T08:12:20;97644.69;;;6.55;85.67
76054;BME280;64752;48.870;9.082;2022-11-20T08:15:05;97643.66;;;6.63;85.87
76054;BME280;64752;48.870;9.082;2022-11-20T08:17:31;97645.75;;;6.81;83.41
76054;BME280;64752;48.870;9.082;2022-11-20T08:19:56;97645.31;;;6.98;82.65
76054;BME280;64752;48.870;9.082;2022-11-20T08:22:22;97642.72;;;6.98;83.34
76054;BME280;64752;48.870;9.082;2022-11-20T08:24:47;97643.53;;;7.00;82.06
76054;BME280;64752;48.870;9.082;2022-11-20T08:27:13;97647.88;;;6.98;81.64
76054;BME280;64752;48.870;9.082;2022-11-20T08:29:38;97641.88;;;6.99;82.27
76054;BME280;64752;48.870;9.082;2022-11-20T08:32:04;97645.78;;;7.12;81.81
76054;BME280;64752;48.870;9.082;2022-11-20T08:34:29;97650.94;;;7.12;82.07
76054;BME280;64752;48.870;9.082;2022-11-20T08:36:54;97643.88;;;7.21;81.11
76054;BME280;64752;48.870;9.082;2022-11-20T08:39:20;97657.59;;;7.21;80.63
76054;BME280;64752;48.870;9.082;2022-11-20T08:41:45;97653.25;;;7.23;81.27
76054;BME280;64752;48.870;9.082;2022-11-20T08:44:10;97662.94;;;7.15;81.60
76054;BME280;64752;48.870;9.082;2022-11-20T08:46:40;97658.69;;;7.12;81.78
76054;BME280;64752;48.870;9.082;2022-11-20T08:49:09;97661.13;;;7.19;82.36
76054;BME280;64752;48.870;9.082;2022-11-20T08:51:36;97666.41;;;7.12;80.71
76054;BME280;64752;48.870;9.082;2022-11-20T08:54:02;97670.00;;;7.07;82.42
76054;BME280;64752;48.870;9.082;2022-11-20T08:56:27;97665.78;;;7.04;81.61
76054;BME280;64752;48.870;9.082;2022-11-20T08:58:53;97675.91;;;7.12;81.51
76054;BME280;64752;48.870;9.082;2022-11-20T09:01:20;97670.81;;;7.09;82.42
76054;BME280;64752;48.870;9.082;2022-11-20T09:03:45;97667.84;;;7.24;81.99
76054;BME280;64752;48.870;9.082;2022-11-20T09:06:11;97681.53;;;7.26;82.04
76054;BME280;64752;48.870;9.082;2022-11-20T09:08:36;97669.59;;;7.22;82.87
76054;BME280;64752;48.870;9.082;2022-11-20T09:11:03;97675.72;;;7.18;82.37
76054;BME280;64752;48.870;9.082;2022-11-20T09:13:29;97679.16;;;7.19;82.27
76054;BME280;64752;48.870;9.082;2022-11-20T09:15:58;97678.47;;;7.12;82.02
76054;BME280;64752;48.870;9.082;2022-11-20T09:18:25;97678.41;;;7.15;82.38
76054;BME280;64752;48.870;9.082;2022-11-20T09:20:51;97680.97;;;7.15;82.92
76054;BME280;64752;48.870;9.082;2022-11-20T09:23:17;97682.72;;;7.13;83.15
76054;BME280;64752;48.870;9.082;2022-11-20T09:25:43;97686.13;;;7.15;82.46
76054;BME280;64752;48.870;9.082;2022-11-20T09:28:08;97694.75;;;7.14;82.34
76054;BME280;64752;48.870;9.082;2022-11-20T09:30:34;97696.72;;;7.04;83.39
76054;BME280;64752;48.870;9.082;2022-11-20T09:33:00;97695.03;;;7.03;83.64
76054;BME280;64752;48.870;9.082;2022-11-20T09:35:26;97700.09;;;7.06;83.80
76054;BME280;64752;48.870;9.082;2022-11-20T09:37:52;97695.72;;;7.10;83.67
76054;BME280;64752;48.870;9.082;2022-11-20T09:40:26;97697.28;;;7.16;84.59
76054;BME280;64752;48.870;9.082;2022-11-20T09:42:57;97688.72;;;7.15;83.67
76054;BME280;64752;48.870;9.082;2022-11-20T09:56:21;97712.25;;;7.01;84.89
76054;BME280;64752;48.870;9.082;2022-11-20T09:58:50;97715.13;;;6.89;86.67
76054;BME280;64752;48.870;9.082;2022-11-20T10:01:30;97706.22;;;6.68;88.06
76054;BME280;64752;48.870;9.082;2022-11-20T10:06:31;97703.38;;;6.79;88.58
76054;BME280;64752;48.870;9.082;2022-11-20T10:14:21;97717.28;;;6.73;87.87
76054;BME280;64752;48.870;9.082;2022-11-20T10:17:02;97714.13;;;6.62;88.75
76054;BME280;64752;48.870;9.082;2022-11-20T10:30:18;97711.16;;;6.77;86.52
76054;BME280;64752;48.870;9.082;2022-11-20T10:32:54;97711.00;;;6.83;86.88
76054;BME280;64752;48.870;9.082;2022-11-20T10:38:17;97714.91;;;6.64;86.41
76054;BME280;64752;48.870;9.082;2022-11-20T10:40:46;97708.34;;;6.50;85.74
76054;BME280;64752;48.870;9.082;2022-11-20T10:43:24;97710.28;;;6.41;86.88
76054;BME280;64752;48.870;9.082;2022-11-20T10:46:03;97712.06;;;6.39;86.53
76054;BME280;64752;48.870;9.082;2022-11-20T10:48:31;97702.34;;;6.50;87.49
76054;BME280;64752;48.870;9.082;2022-11-20T10:56:38;97704.22;;;6.79;87.54
76054;BME280;64752;48.870;9.082;2022-11-20T11:01:51;97706.94;;;7.07;87.01
76054;BME280;64752;48.870;9.082;2022-11-20T11:06:48;97705.38;;;7.02;87.83
76054;BME280;64752;48.870;9.082;2022-11-20T11:09:21;97696.69;;;7.06;88.16
76054;BME280;64752;48.870;9.082;2022-11-20T11:11:51;97698.19;;;7.13;88.54
76054;BME280;64752;48.870;9.082;2022-11-20T11:14:16;97699.69;;;7.22;86.70
76054;BME280;64752;48.870;9.082;2022-11-20T11:16:56;97686.59;;;7.29;86.48
76054;BME280;64752;48.870;9.082;2022-11-20T11:19:22;97677.66;;;7.43;86.25
76054;BME280;64752;48.870;9.082;2022-11-20T11:21:51;97682.53;;;8.11;83.40
76054;BME280;64752;48.870;9.082;2022-11-20T11:24:26;97671.13;;;9.24;79.35
76054;BME280;64752;48.870;9.082;2022-11-20T11:29:24;97658.63;;;10.72;73.41
76054;BME280;64752;48.870;9.082;2022-11-20T11:32:15;97656.22;;;10.23;72.76
76054;BME280;64752;48.870;9.082;2022-11-20T11:34:59;97656.66;;;10.57;70.90
76054;BME280;64752;48.870;9.082;2022-11-20T11:37:31;97653.03;;;11.81;67.90
76054;BME280;64752;48.870;9.082;2022-11-20T11:39:58;97648.91;;;10.35;70.36
76054;BME280;64752;48.870;9.082;2022-11-20T11:42:23;97642.78;;;9.68;72.83
76054;BME280;64752;48.870;9.082;2022-11-20T11:44:49;97641.06;;;9.45;72.98
76054;BME280;64752;48.870;9.082;2022-11-20T11:53:14;97630.50;;;9.02;74.22
76054;BME280;64752;48.870;9.082;2022-11-20T11:56:04;97634.88;;;9.49;73.49
76054;BME280;64752;48.870;9.082;2022-11-20T11:58:41;97627.75;;;11.07;66.11
76054;BME280;64752;48.870;9.082;2022-11-20T12:01:33;97606.81;;;11.69;64.51
76054;BME280;64752;48.870;9.082;2022-11-20T12:06:27;97620.44;;;12.83;62.38
76054;BME280;64752;48.870;9.082;2022-11-20T12:09:02;97612.63;;;12.66;60.99
76054;BME280;64752;48.870;9.082;2022-11-20T12:11:34;97612.00;;;12.61;58.78
76054;BME280;64752;48.870;9.082;2022-11-20T12:16:50;97608.25;;;11.57;61.64
76054;BME280;64752;48.870;9.082;2022-11-20T12:19:17;97603.69;;;11.62;60.09
76054;BME280;64752;48.870;9.082;2022-11-20T12:21:53;97607.75;;;12.06;59.83
76054;BME280;64752;48.870;9.082;2022-11-20T12:32:34;97599.16;;;12.40;57.20
76054;BME280;64752;48.870;9.082;2022-11-20T12:40:23;97592.25;;;12.22;56.31
76054;BME280;64752;48.870;9.082;2022-11-20T12:51:48;97591.81;;;11.75;56.91
76054;BME280;64752;48.870;9.082;2022-11-20T13:00:33;97595.78;;;10.86;58.49
76054;BME280;64752;48.870;9.082;2022-11-20T13:05:43;97605.03;;;9.62;61.07
76054;BME280;64752;48.870;9.082;2022-11-20T13:08:25;97611.53;;;10.18;60.39
76054;BME280;64752;48.870;9.082;2022-11-20T13:11:05;97612.97;;;10.68;59.29
76054;BME280;64752;48.870;9.082;2022-11-20T13:18:56;97583.81;;;11.23;56.81
76054;BME280;64752;48.870;9.082;2022-11-20T13:24:32;97583.38;;;12.26;56.14
76054;BME280;64752;48.870;9.082;2022-11-20T13:29:42;97581.97;;;12.01;57.98
76054;BME280;64752;48.870;9.082;2022-11-20T13:32:18;97571.91;;;12.12;56.21
76054;BME280;64752;48.870;9.082;2022-11-20T13:34:56;97568.38;;;11.39;55.18
76054;BME280;64752;48.870;9.082;2022-11-20T13:42:45;97564.81;;;9.76;59.95
76054;BME280;64752;48.870;9.082;2022-11-20T13:45:28;97574.41;;;9.74;60.29
76054;BME280;64752;48.870;9.082;2022-11-20T13:47:55;97576.41;;;9.43;62.00
76054;BME280;64752;48.870;9.082;2022-11-20T13:50:40;97571.03;;;9.72;61.03
76054;BME280;64752;48.870;9.082;2022-11-20T13:53:25;97574.91;;;9.38;61.95
76054;BME280;64752;48.870;9.082;2022-11-20T13:55:59;97590.81;;;9.27;62.13
76054;BME280;64752;48.870;9.082;2022-11-20T14:01:13;97581.44;;;8.76;64.30
76054;BME280;64752;48.870;9.082;2022-11-20T14:03:40;97582.06;;;8.57;65.96
76054;BME280;64752;48.870;9.082;2022-11-20T14:06:14;97578.88;;;8.49;65.78
76054;BME280;64752;48.870;9.082;2022-11-20T14:08:46;97566.56;;;8.57;65.92
76054;BME280;64752;48.870;9.082;2022-11-20T14:11:22;97579.59;;;8.27;67.69
76054;BME280;64752;48.870;9.082;2022-11-20T14:14:10;97564.09;;;8.27;67.81
76054;BME280;64752;48.870;9.082;2022-11-20T14:16:38;97573.69;;;8.24;68.07
76054;BME280;64752;48.870;9.082;2022-11-20T14:21:46;97566.94;;;8.20;68.32
76054;BME280;64752;48.870;9.082;2022-11-20T14:24:18;97569.50;;;8.20;68.63
76054;BME280;64752;48.870;9.082;2022-11-20T14:26:44;97569.09;;;8.32;69.39
76054;BME280;64752;48.870;9.082;2022-11-20T14:29:14;97570.31;;;8.22;70.20
76054;BME280;64752;48.870;9.082;2022-11-20T14:31:42;97572.78;;;7.98;71.79
76054;BME280;64752;48.870;9.082;2022-11-20T14:34:21;97571.72;;;8.04;71.43
76054;BME280;64752;48.870;9.082;2022-11-20T14:36:47;97568.34;;;7.73;72.60
76054;BME280;64752;48.870;9.082;2022-11-20T14:39:20;97563.75;;;7.85;72.33
76054;BME280;64752;48.870;9.082;2022-11-20T14:41:53;97559.41;;;7.85;73.03
76054;BME280;64752;48.870;9.082;2022-11-20T14:44:23;97555.03;;;7.87;73.56
76054;BME280;64752;48.870;9.082;2022-11-20T14:46:51;97554.38;;;7.81;73.02
76054;BME280;64752;48.870;9.082;2022-11-20T14:49:17;97547.63;;;7.77;72.03
76054;BME280;64752;48.870;9.082;2022-11-20T14:51:43;97543.63;;;7.95;72.42
76054;BME280;64752;48.870;9.082;2022-11-20T14:54:20;97537.91;;;8.11;71.94
76054;BME280;64752;48.870;9.082;2022-11-20T14:57:03;97525.16;;;7.80;73.13
76054;BME280;64752;48.870;9.082;2022-11-20T14:59:31;97524.31;;;7.51;74.75
76054;BME280;64752;48.870;9.082;2022-11-20T15:02:08;97523.75;;;7.42;75.07
76054;BME280;64752;48.870;9.082;2022-11-20T15:04:50;97520.66;;;7.30;75.53
76054;BME280;64752;48.870;9.082;2022-11-20T15:07:30;97507.38;;;7.14;75.21
76054;BME280;64752;48.870;9.082;2022-11-20T15:10:08;97522.88;;;7.13;74.77
76054;BME280;64752;48.870;9.082;2022-11-20T15:12:40;97515.41;;;7.04;74.60
76054;BME280;64752;48.870;9.082;2022-11-20T15:15:15;97505.38;;;6.94;74.92
76054;BME280;64752;48.870;9.082;2022-11-20T15:17:45;97505.63;;;6.85;75.40
76054;BME280;64752;48.870;9.082;2022-11-20T15:20:14;97502.28;;;6.82;76.07
76054;BME280;64752;48.870;9.082;2022-11-20T15:22:41;97507.69;;;6.72;76.26
76054;BME280;64752;48.870;9.082;2022-11-20T15:25:16;97507.16;;;6.61;76.66